sensor_id;sensor_type;location;lat;lon;timestamp;P1;durP1;ratioP1;P2;durP2;ratioP2
48629;SDS011;34426;52.180;4.462;2022-08-21T00:00:12;18.05;;;4.57;;
48629;SDS011;34426;52.180;4.462;2022-08-21T00:02:44;13.80;;;3.42;;
48629;SDS011;34426;52.180;4.462;2022-08-21T00:05:13;14.07;;;3.97;;
48629;SDS011;34426;52.180;4.462;2022-08-21T00:07:40;14.40;;;3.92;;
48629;SDS011;34426;52.180;4.462;2022-08-21T00:10:08;19.42;;;3.92;;
48629;SDS011;34426;52.180;4.462;2022-08-21T00:12:36;18.83;;;4.80;;
48629;SDS011;34426;52.180;4.462;2022-08-21T00:15:08;17.48;;;4.65;;
48629;SDS011;34426;52.180;4.462;2022-08-21T00:17:37;14.88;;;4.32;;
48629;SDS011;34426;52.180;4.462;2022-08-21T00:20:06;8.95;;;3.15;;
48629;SDS011;34426;52.180;4.462;2022-08-21T00:22:36;26.00;;;4.72;;
48629;SDS011;34426;52.180;4.462;2022-08-21T00:25:03;13.77;;;4.57;;
48629;SDS011;34426;52.180;4.462;2022-08-21T00:27:32;16.85;;;4.78;;
48629;SDS011;34426;52.180;4.462;2022-08-21T00:30:00;14.43;;;3.97;;
48629;SDS011;34426;52.180;4.462;2022-08-21T00:32:30;22.25;;;4.03;;
48629;SDS011;34426;52.180;4.462;2022-08-21T00:34:57;16.35;;;4.00;;
48629;SDS011;34426;52.180;4.462;2022-08-21T00:37:24;14.68;;;4.05;;
48629;SDS011;34426;52.180;4.462;2022-08-21T00:39:52;15.43;;;4.63;;
48629;SDS011;34426;52.180;4.462;2022-08-21T00:42:20;11.75;;;3.92;;
48629;SDS011;34426;52.180;4.462;2022-08-21T00:44:48;14.93;;;4.03;;
48629;SDS011;34426;52.180;4.462;2022-08-21T00:47:16;12.40;;;4.20;;
48629;SDS011;34426;52.180;4.462;2022-08-21T00:49:45;14.15;;;3.75;;
48629;SDS011;34426;52.180;4.462;2022-08-21T00:52:13;16.23;;;3.85;;
48629;SDS011;34426;52.180;4.462;2022-08-21T00:54:44;15.45;;;4.13;;
48629;SDS011;34426;52.180;4.462;2022-08-21T00:57:14;18.27;;;4.53;;
48629;SDS011;34426;52.180;4.462;2022-08-21T00:59:48;19.02;;;4.53;;
48629;SDS011;34426;52.180;4.462;2022-08-21T01:02:17;11.73;;;3.60;;
48629;SDS011;34426;52.180;4.462;2022-08-21T01:04:47;20.05;;;4.25;;
48629;SDS011;34426;52.180;4.462;2022-08-21T01:07:15;10.98;;;3.50;;
48629;SDS011;34426;52.180;4.462;2022-08-21T01:09:42;18.92;;;4.03;;
48629;SDS011;34426;52.180;4.462;2022-08-21T01:12:11;17.33;;;4.72;;
48629;SDS011;34426;52.180;4.462;2022-08-21T01:14:39;14.32;;;3.67;;
48629;SDS011;34426;52.180;4.462;2022-08-21T01:17:07;16.65;;;3.80;;
48629;SDS011;34426;52.180;4.462;2022-08-21T01:19:37;19.25;;;4.03;;
48629;SDS011;34426;52.180;4.462;2022-08-21T01:22:07;17.42;;;3.50;;
48629;SDS011;34426;52.180;4.462;2022-08-21T01:24:34;18.38;;;3.58;;
48629;SDS011;34426;52.180;4.462;2022-08-21T01:27:02;11.77;;;3.53;;
48629;SDS011;34426;52.180;4.462;2022-08-21T01:29:30;13.43;;;3.38;;
48629;SDS011;34426;52.180;4.462;2022-08-21T01:32:03;11.65;;;3.65;;
48629;SDS011;34426;52.180;4.462;2022-08-21T01:34:33;13.45;;;3.75;;
48629;SDS011;34426;52.180;4.462;2022-08-21T01:37:02;19.95;;;3.50;;
48629;SDS011;34426;52.180;4.462;2022-08-21T01:39:31;14.63;;;3.05;;
48629;SDS011;34426;52.180;4.462;2022-08-21T01:42:00;18.90;;;3.17;;
48629;SDS011;34426;52.180;4.462;2022-08-21T01:44:27;13.27;;;3.20;;
48629;SDS011;34426;52.180;4.462;2022-08-21T01:46:55;15.27;;;3.90;;
48629;SDS011;34426;52.180;4.462;2022-08-21T01:49:24;13.80;;;3.28;;
48629;SDS011;34426;52.180;4.462;2022-08-21T01:51:52;15.48;;;2.83;;
48629;SDS011;34426;52.180;4.462;2022-08-21T01:54:19;12.00;;;2.75;;
48629;SDS011;34426;52.180;4.462;2022-08-21T01:56:50;18.52;;;3.70;;
48629;SDS011;34426;52.180;4.462;2022-08-21T01:59:19;13.23;;;3.58;;
48629;SDS011;34426;52.180;4.462;2022-08-21T02:01:48;23.38;;;5.13;;
48629;SDS011;34426;52.180;4.462;2022-08-21T02:04:15;14.57;;;2.83;;
48629;SDS011;34426;52.180;4.462;2022-08-21T02:06:43;16.88;;;3.70;;
48629;SDS011;34426;52.180;4.462;2022-08-21T02:09:10;16.35;;;3.08;;
48629;SDS011;34426;52.180;4.462;2022-08-21T02:11:38;15.07;;;3.42;;
48629;SDS011;34426;52.180;4.462;2022-08-21T02:14:08;13.35;;;3.63;;
48629;SDS011;34426;52.180;4.462;2022-08-21T02:16:36;18.65;;;3.47;;
48629;SDS011;34426;52.180;4.462;2022-08-21T02:19:04;16.60;;;3.70;;
48629;SDS011;34426;52.180;4.462;2022-08-21T02:21:31;17.42;;;3.75;;
48629;SDS011;34426;52.180;4.462;2022-08-21T02:23:59;18.48;;;3.40;;
48629;SDS011;34426;52.180;4.462;2022-08-21T02:26:26;12.32;;;3.10;;
48629;SDS011;34426;52.180;4.462;2022-08-21T02:28:53;14.38;;;3.03;;
48629;SDS011;34426;52.180;4.462;2022-08-21T02:31:22;10.95;;;3.13;;
48629;SDS011;34426;52.180;4.462;2022-08-21T02:33:50;23.23;;;3.45;;
48629;SDS011;34426;52.180;4.462;2022-08-21T02:36:17;19.30;;;3.80;;
48629;SDS011;34426;52.180;4.462;2022-08-21T02:38:44;12.52;;;3.00;;
48629;SDS011;34426;52.180;4.462;2022-08-21T02:41:12;19.27;;;4.00;;
48629;SDS011;34426;52.180;4.462;2022-08-21T02:43:41;16.58;;;2.88;;
48629;SDS011;34426;52.180;4.462;2022-08-21T02:46:09;21.33;;;3.72;;
48629;SDS011;34426;52.180;4.462;2022-08-21T02:48:40;16.92;;;3.40;;
48629;SDS011;34426;52.180;4.462;2022-08-21T02:51:07;18.27;;;3.35;;
48629;SDS011;34426;52.180;4.462;2022-08-21T02:53:36;16.65;;;3.22;;
48629;SDS011;34426;52.180;4.462;2022-08-21T02:56:12;15.02;;;3.58;;
48629;SDS011;34426;52.180;4.462;2022-08-21T02:58:41;14.85;;;3.08;;
48629;SDS011;34426;52.180;4.462;2022-08-21T03:01:11;13.75;;;2.92;;
48629;SDS011;34426;52.180;4.462;2022-08-21T03:03:41;21.92;;;3.60;;
48629;SDS011;34426;52.180;4.462;2022-08-21T03:06:11;27.60;;;4.55;;
48629;SDS011;34426;52.180;4.462;2022-08-21T03:08:39;19.23;;;3.17;;
48629;SDS011;34426;52.180;4.462;2022-08-21T03:11:06;18.90;;;3.65;;
48629;SDS011;34426;52.180;4.462;2022-08-21T03:13:34;12.70;;;3.05;;
48629;SDS011;34426;52.180;4.462;2022-08-21T03:16:01;19.65;;;3.88;;
48629;SDS011;34426;52.180;4.462;2022-08-21T03:18:29;14.80;;;3.63;;
48629;SDS011;34426;52.180;4.462;2022-08-21T03:20:58;15.82;;;3.50;;
48629;SDS011;34426;52.180;4.462;2022-08-21T03:23:26;16.65;;;3.50;;
48629;SDS011;34426;52.180;4.462;2022-08-21T03:25:53;21.80;;;4.00;;
48629;SDS011;34426;52.180;4.462;2022-08-21T03:28:21;14.27;;;3.22;;
48629;SDS011;34426;52.180;4.462;2022-08-21T03:30:49;19.73;;;3.83;;
48629;SDS011;34426;52.180;4.462;2022-08-21T03:33:17;14.45;;;3.80;;
48629;SDS011;34426;52.180;4.462;2022-08-21T03:35:47;18.20;;;3.85;;
48629;SDS011;34426;52.180;4.462;2022-08-21T03:38:23;21.55;;;3.95;;
48629;SDS011;34426;52.180;4.462;2022-08-21T03:40:50;17.50;;;3.42;;
48629;SDS011;34426;52.180;4.462;2022-08-21T03:43:18;16.33;;;3.42;;
48629;SDS011;34426;52.180;4.462;2022-08-21T03:45:45;15.57;;;3.78;;
48629;SDS011;34426;52.180;4.462;2022-08-21T03:48:13;18.80;;;3.80;;
48629;SDS011;34426;52.180;4.462;2022-08-21T03:50:41;20.67;;;4.38;;
48629;SDS011;34426;52.180;4.462;2022-08-21T03:53:09;16.90;;;3.90;;
48629;SDS011;34426;52.180;4.462;2022-08-21T03:55:39;20.17;;;4.20;;
48629;SDS011;34426;52.180;4.462;2022-08-21T03:58:06;14.02;;;3.35;;
48629;SDS011;34426;52.180;4.462;2022-08-21T04:00:33;19.08;;;4.03;;
48629;SDS011;34426;52.180;4.462;2022-08-21T04:03:01;21.33;;;4.00;;
48629;SDS011;34426;52.180;4.462;2022-08-21T04:05:28;16.13;;;3.80;;
48629;SDS011;34426;52.180;4.462;2022-08-21T04:07:56;24.98;;;5.07;;
48629;SDS011;34426;52.180;4.462;2022-08-21T04:10:24;17.13;;;3.70;;
48629;SDS011;34426;52.180;4.462;2022-08-21T04:12:54;16.33;;;4.82;;
48629;SDS011;34426;52.180;4.462;2022-08-21T04:15:23;18.35;;;3.88;;
48629;SDS011;34426;52.180;4.462;2022-08-21T04:17:51;22.42;;;4.20;;
48629;SDS011;34426;52.180;4.462;2022-08-21T04:20:18;20.58;;;4.28;;
48629;SDS011;34426;52.180;4.462;2022-08-21T04:22:46;16.20;;;3.47;;
48629;SDS011;34426;52.180;4.462;2022-08-21T04:25:15;17.58;;;4.68;;
48629;SDS011;34426;52.180;4.462;2022-08-21T04:27:42;17.52;;;4.10;;
48629;SDS011;34426;52.180;4.462;2022-08-21T04:30:12;18.55;;;3.95;;
48629;SDS011;34426;52.180;4.462;2022-08-21T04:32:42;26.73;;;4.95;;
48629;SDS011;34426;52.180;4.462;2022-08-21T04:35:10;12.38;;;3.80;;
48629;SDS011;34426;52.180;4.462;2022-08-21T04:37:38;18.33;;;3.60;;
48629;SDS011;34426;52.180;4.462;2022-08-21T04:40:06;19.83;;;4.28;;
48629;SDS011;34426;52.180;4.462;2022-08-21T04:42:40;21.38;;;5.00;;
48629;SDS011;34426;52.180;4.462;2022-08-21T04:45:08;24.67;;;4.50;;
48629;SDS011;34426;52.180;4.462;2022-08-21T04:47:40;21.45;;;4.50;;
48629;SDS011;34426;52.180;4.462;2022-08-21T04:50:07;20.50;;;5.07;;
48629;SDS011;34426;52.180;4.462;2022-08-21T04:52:38;26.15;;;4.85;;
48629;SDS011;34426;52.180;4.462;2022-08-21T04:55:06;21.50;;;4.30;;
48629;SDS011;34426;52.180;4.462;2022-08-21T04:57:33;21.08;;;5.47;;
48629;SDS011;34426;52.180;4.462;2022-08-21T05:00:02;18.60;;;4.53;;
48629;SDS011;34426;52.180;4.462;2022-08-21T05:02:33;22.63;;;4.45;;
48629;SDS011;34426;52.180;4.462;2022-08-21T05:05:01;18.58;;;4.85;;
48629;SDS011;34426;52.180;4.462;2022-08-21T05:07:29;28.00;;;5.43;;
48629;SDS011;34426;52.180;4.462;2022-08-21T05:09:57;32.45;;;5.57;;
48629;SDS011;34426;52.180;4.462;2022-08-21T05:12:26;24.33;;;5.47;;
48629;SDS011;34426;52.180;4.462;2022-08-21T05:14:53;20.27;;;4.85;;
48629;SDS011;34426;52.180;4.462;2022-08-21T05:17:20;22.98;;;5.43;;
48629;SDS011;34426;52.180;4.462;2022-08-21T05:19:48;21.08;;;5.50;;
48629;SDS011;34426;52.180;4.462;2022-08-21T05:22:19;22.85;;;4.97;;
48629;SDS011;34426;52.180;4.462;2022-08-21T05:24:46;23.98;;;5.30;;
48629;SDS011;34426;52.180;4.462;2022-08-21T05:27:14;18.83;;;5.10;;
48629;SDS011;34426;52.180;4.462;2022-08-21T05:29:41;20.95;;;5.65;;
48629;SDS011;34426;52.180;4.462;2022-08-21T05:32:09;27.73;;;6.65;;
48629;SDS011;34426;52.180;4.462;2022-08-21T05:34:37;24.05;;;6.45;;
48629;SDS011;34426;52.180;4.462;2022-08-21T05:37:07;27.80;;;6.40;;
48629;SDS011;34426;52.180;4.462;2022-08-21T05:39:36;25.15;;;6.25;;
48629;SDS011;34426;52.180;4.462;2022-08-21T05:42:04;20.88;;;5.85;;
48629;SDS011;34426;52.180;4.462;2022-08-21T05:44:32;28.38;;;6.05;;
48629;SDS011;34426;52.180;4.462;2022-08-21T05:47:02;24.55;;;6.10;;
48629;SDS011;34426;52.180;4.462;2022-08-21T05:49:31;28.27;;;6.68;;
48629;SDS011;34426;52.180;4.462;2022-08-21T05:51:58;23.35;;;5.78;;
48629;SDS011;34426;52.180;4.462;2022-08-21T05:54:27;34.60;;;6.80;;
48629;SDS011;34426;52.180;4.462;2022-08-21T05:56:55;29.23;;;6.20;;
48629;SDS011;34426;52.180;4.462;2022-08-21T05:59:22;22.90;;;5.60;;
48629;SDS011;34426;52.180;4.462;2022-08-21T06:01:50;23.42;;;5.65;;
48629;SDS011;34426;52.180;4.462;2022-08-21T06:04:18;23.75;;;6.40;;
48629;SDS011;34426;52.180;4.462;2022-08-21T06:06:45;23.98;;;6.00;;
48629;SDS011;34426;52.180;4.462;2022-08-21T06:09:12;29.70;;;6.38;;
48629;SDS011;34426;52.180;4.462;2022-08-21T06:11:41;23.42;;;7.05;;
48629;SDS011;34426;52.180;4.462;2022-08-21T06:14:08;25.88;;;6.53;;
48629;SDS011;34426;52.180;4.462;2022-08-21T06:16:39;21.95;;;6.60;;
48629;SDS011;34426;52.180;4.462;2022-08-21T06:19:06;20.98;;;5.95;;
48629;SDS011;34426;52.180;4.462;2022-08-21T06:21:33;21.75;;;6.32;;
48629;SDS011;34426;52.180;4.462;2022-08-21T06:24:01;24.27;;;6.50;;
48629;SDS011;34426;52.180;4.462;2022-08-21T06:26:28;34.85;;;8.25;;
48629;SDS011;34426;52.180;4.462;2022-08-21T06:28:57;24.73;;;6.32;;
48629;SDS011;34426;52.180;4.462;2022-08-21T06:31:25;31.60;;;6.60;;
48629;SDS011;34426;52.180;4.462;2022-08-21T06:33:53;37.03;;;7.95;;
48629;SDS011;34426;52.180;4.462;2022-08-21T06:36:21;22.70;;;5.70;;
48629;SDS011;34426;52.180;4.462;2022-08-21T06:38:49;23.90;;;5.47;;
48629;SDS011;34426;52.180;4.462;2022-08-21T06:41:16;21.83;;;5.57;;
48629;SDS011;34426;52.180;4.462;2022-08-21T06:43:43;17.60;;;5.82;;
48629;SDS011;34426;52.180;4.462;2022-08-21T06:46:12;22.35;;;5.78;;
48629;SDS011;34426;52.180;4.462;2022-08-21T06:48:40;22.85;;;6.60;;
48629;SDS011;34426;52.180;4.462;2022-08-21T06:51:07;26.13;;;6.95;;
48629;SDS011;34426;52.180;4.462;2022-08-21T06:53:34;28.45;;;6.85;;
48629;SDS011;34426;52.180;4.462;2022-08-21T06:56:02;25.92;;;6.60;;
48629;SDS011;34426;52.180;4.462;2022-08-21T06:58:29;23.75;;;5.63;;
48629;SDS011;34426;52.180;4.462;2022-08-21T07:00:57;24.95;;;5.55;;
48629;SDS011;34426;52.180;4.462;2022-08-21T07:03:27;19.42;;;5.55;;
48629;SDS011;34426;52.180;4.462;2022-08-21T07:05:56;22.27;;;5.38;;
48629;SDS011;34426;52.180;4.462;2022-08-21T07:08:24;20.65;;;5.43;;
48629;SDS011;34426;52.180;4.462;2022-08-21T07:10:52;19.55;;;4.90;;
48629;SDS011;34426;52.180;4.462;2022-08-21T07:13:21;17.02;;;4.80;;
48629;SDS011;34426;52.180;4.462;2022-08-21T07:15:49;25.55;;;4.90;;
48629;SDS011;34426;52.180;4.462;2022-08-21T07:18:16;26.58;;;5.20;;
48629;SDS011;34426;52.180;4.462;2022-08-21T07:20:46;27.17;;;4.78;;
48629;SDS011;34426;52.180;4.462;2022-08-21T07:23:15;28.30;;;6.50;;
48629;SDS011;34426;52.180;4.462;2022-08-21T07:25:48;19.33;;;5.47;;
48629;SDS011;34426;52.180;4.462;2022-08-21T07:28:16;26.70;;;5.88;;
48629;SDS011;34426;52.180;4.462;2022-08-21T07:30:43;23.20;;;5.15;;
48629;SDS011;34426;52.180;4.462;2022-08-21T07:33:10;22.65;;;5.00;;
48629;SDS011;34426;52.180;4.462;2022-08-21T07:35:38;20.35;;;4.25;;
48629;SDS011;34426;52.180;4.462;2022-08-21T07:38:07;21.27;;;4.55;;
48629;SDS011;34426;52.180;4.462;2022-08-21T07:40:34;21.13;;;5.15;;
48629;SDS011;34426;52.180;4.462;2022-08-21T07:43:02;21.98;;;4.20;;
48629;SDS011;34426;52.180;4.462;2022-08-21T07:45:29;18.95;;;4.10;;
48629;SDS011;34426;52.180;4.462;2022-08-21T07:47:58;23.60;;;4.20;;
48629;SDS011;34426;52.180;4.462;2022-08-21T07:50:25;26.20;;;4.90;;
48629;SDS011;34426;52.180;4.462;2022-08-21T07:52:52;20.33;;;4.10;;
48629;SDS011;34426;52.180;4.462;2022-08-21T07:55:22;18.05;;;4.35;;
48629;SDS011;34426;52.180;4.462;2022-08-21T07:57:49;19.17;;;4.22;;
48629;SDS011;34426;52.180;4.462;2022-08-21T08:00:18;24.08;;;5.10;;
48629;SDS011;34426;52.180;4.462;2022-08-21T08:02:48;15.63;;;4.47;;
48629;SDS011;34426;52.180;4.462;2022-08-21T08:05:17;20.10;;;3.92;;
48629;SDS011;34426;52.180;4.462;2022-08-21T08:07:45;19.42;;;4.80;;
48629;SDS011;34426;52.180;4.462;2022-08-21T08:10:13;19.27;;;4.55;;
48629;SDS011;34426;52.180;4.462;2022-08-21T08:12:41;24.58;;;5.15;;
48629;SDS011;34426;52.180;4.462;2022-08-21T08:15:10;18.08;;;4.35;;
48629;SDS011;34426;52.180;4.462;2022-08-21T08:17:40;17.08;;;3.97;;
48629;SDS011;34426;52.180;4.462;2022-08-21T08:20:08;30.33;;;4.38;;
48629;SDS011;34426;52.180;4.462;2022-08-21T08:22:37;19.17;;;4.70;;
48629;SDS011;34426;52.180;4.462;2022-08-21T08:25:07;24.42;;;5.00;;
48629;SDS011;34426;52.180;4.462;2022-08-21T08:27:36;21.27;;;4.93;;
48629;SDS011;34426;52.180;4.462;2022-08-21T08:30:07;20.75;;;4.55;;
48629;SDS011;34426;52.180;4.462;2022-08-21T08:32:36;21.67;;;4.68;;
48629;SDS011;34426;52.180;4.462;2022-08-21T08:35:03;20.85;;;4.15;;
48629;SDS011;34426;52.180;4.462;2022-08-21T08:37:31;21.70;;;4.22;;
48629;SDS011;34426;52.180;4.462;2022-08-21T08:39:59;25.88;;;4.03;;
48629;SDS011;34426;52.180;4.462;2022-08-21T08:42:28;23.20;;;4.72;;
48629;SDS011;34426;52.180;4.462;2022-08-21T08:44:57;25.55;;;5.53;;
48629;SDS011;34426;52.180;4.462;2022-08-21T08:47:30;27.42;;;4.45;;
48629;SDS011;34426;52.180;4.462;2022-08-21T08:50:01;20.00;;;4.55;;
48629;SDS011;34426;52.180;4.462;2022-08-21T08:52:32;22.77;;;3.80;;
48629;SDS011;34426;52.180;4.462;2022-08-21T08:55:03;19.63;;;3.88;;
48629;SDS011;34426;52.180;4.462;2022-08-21T08:57:33;13.55;;;3.08;;
48629;SDS011;34426;52.180;4.462;2022-08-21T09:00:04;16.55;;;3.10;;
48629;SDS011;34426;52.180;4.462;2022-08-21T09:02:36;14.68;;;2.88;;
48629;SDS011;34426;52.180;4.462;2022-08-21T09:05:05;13.18;;;2.10;;
48629;SDS011;34426;52.180;4.462;2022-08-21T09:07:35;11.65;;;2.38;;
48629;SDS011;34426;52.180;4.462;2022-08-21T09:10:13;12.10;;;2.38;;
48629;SDS011;34426;52.180;4.462;2022-08-21T09:12:59;10.98;;;2.25;;
48629;SDS011;34426;52.180;4.462;2022-08-21T09:15:36;11.77;;;2.85;;
48629;SDS011;34426;52.180;4.462;2022-08-21T09:18:16;13.88;;;2.00;;
48629;SDS011;34426;52.180;4.462;2022-08-21T09:20:56;10.73;;;2.20;;
48629;SDS011;34426;52.180;4.462;2022-08-21T09:23:34;14.57;;;2.53;;
48629;SDS011;34426;52.180;4.462;2022-08-21T09:26:11;12.32;;;1.83;;
48629;SDS011;34426;52.180;4.462;2022-08-21T09:28:40;10.43;;;1.95;;
48629;SDS011;34426;52.180;4.462;2022-08-21T09:31:08;10.77;;;2.10;;
48629;SDS011;34426;52.180;4.462;2022-08-21T09:33:44;14.00;;;2.10;;
48629;SDS011;34426;52.180;4.462;2022-08-21T09:36:11;11.65;;;2.97;;
48629;SDS011;34426;52.180;4.462;2022-08-21T09:38:51;12.35;;;1.98;;
48629;SDS011;34426;52.180;4.462;2022-08-21T09:41:25;14.52;;;3.60;;
48629;SDS011;34426;52.180;4.462;2022-08-21T09:43:55;7.93;;;2.42;;
48629;SDS011;34426;52.180;4.462;2022-08-21T09:46:23;11.52;;;1.52;;
48629;SDS011;34426;52.180;4.462;2022-08-21T09:48:54;7.57;;;1.75;;
48629;SDS011;34426;52.180;4.462;2022-08-21T09:51:23;7.32;;;1.80;;
48629;SDS011;34426;52.180;4.462;2022-08-21T09:53:53;10.18;;;1.70;;
48629;SDS011;34426;52.180;4.462;2022-08-21T09:56:27;8.67;;;1.97;;
48629;SDS011;34426;52.180;4.462;2022-08-21T09:58:57;9.40;;;1.85;;
48629;SDS011;34426;52.180;4.462;2022-08-21T10:01:25;8.07;;;1.67;;
48629;SDS011;34426;52.180;4.462;2022-08-21T10:04:03;10.13;;;2.42;;
48629;SDS011;34426;52.180;4.462;2022-08-21T10:06:33;12.98;;;1.80;;
48629;SDS011;34426;52.180;4.462;2022-08-21T10:09:04;8.52;;;2.05;;
48629;SDS011;34426;52.180;4.462;2022-08-21T10:11:33;8.40;;;1.88;;
48629;SDS011;34426;52.180;4.462;2022-08-21T10:14:03;10.40;;;2.28;;
48629;SDS011;34426;52.180;4.462;2022-08-21T10:16:41;9.95;;;2.10;;
48629;SDS011;34426;52.180;4.462;2022-08-21T10:19:24;14.38;;;2.90;;
48629;SDS011;34426;52.180;4.462;2022-08-21T10:22:04;12.52;;;2.47;;
48629;SDS011;34426;52.180;4.462;2022-08-21T10:24:43;11.07;;;2.35;;
48629;SDS011;34426;52.180;4.462;2022-08-21T10:27:19;10.48;;;2.28;;
48629;SDS011;34426;52.180;4.462;2022-08-21T10:30:02;8.48;;;2.17;;
48629;SDS011;34426;52.180;4.462;2022-08-21T10:32:39;9.52;;;2.08;;
48629;SDS011;34426;52.180;4.462;2022-08-21T10:35:27;10.45;;;1.80;;
48629;SDS011;34426;52.180;4.462;2022-08-21T10:38:00;12.87;;;2.93;;
48629;SDS011;34426;52.180;4.462;2022-08-21T10:40:42;13.63;;;2.13;;
48629;SDS011;34426;52.180;4.462;2022-08-21T10:43:20;10.27;;;2.47;;
48629;SDS011;34426;52.180;4.462;2022-08-21T10:45:54;9.43;;;2.33;;
48629;SDS011;34426;52.180;4.462;2022-08-21T10:48:28;9.23;;;2.28;;
48629;SDS011;34426;52.180;4.462;2022-08-21T10:51:06;9.30;;;1.92;;
48629;SDS011;34426;52.180;4.462;2022-08-21T10:53:42;10.23;;;2.00;;
48629;SDS011;34426;52.180;4.462;2022-08-21T10:56:18;11.23;;;2.33;;
48629;SDS011;34426;52.180;4.462;2022-08-21T10:58:51;5.38;;;1.55;;
48629;SDS011;34426;52.180;4.462;2022-08-21T11:01:44;9.57;;;2.30;;
48629;SDS011;34426;52.180;4.462;2022-08-21T11:04:19;14.80;;;2.03;;
48629;SDS011;34426;52.180;4.462;2022-08-21T11:06:55;10.20;;;2.20;;
48629;SDS011;34426;52.180;4.462;2022-08-21T11:09:27;11.55;;;1.95;;
48629;SDS011;34426;52.180;4.462;2022-08-21T11:11:56;13.48;;;2.17;;
48629;SDS011;34426;52.180;4.462;2022-08-21T11:14:30;12.68;;;2.67;;
48629;SDS011;34426;52.180;4.462;2022-08-21T11:17:06;10.88;;;2.53;;
48629;SDS011;34426;52.180;4.462;2022-08-21T11:19:38;10.15;;;2.20;;
48629;SDS011;34426;52.180;4.462;2022-08-21T11:22:13;8.27;;;2.08;;
48629;SDS011;34426;52.180;4.462;2022-08-21T11:24:46;7.93;;;2.30;;
48629;SDS011;34426;52.180;4.462;2022-08-21T11:27:20;12.95;;;2.25;;
48629;SDS011;34426;52.180;4.462;2022-08-21T11:29:52;11.68;;;1.88;;
48629;SDS011;34426;52.180;4.462;2022-08-21T11:32:27;11.43;;;2.03;;
48629;SDS011;34426;52.180;4.462;2022-08-21T11:35:08;9.30;;;2.20;;
48629;SDS011;34426;52.180;4.462;2022-08-21T11:37:47;10.32;;;2.35;;
48629;SDS011;34426;52.180;4.462;2022-08-21T11:40:28;16.58;;;2.78;;
48629;SDS011;34426;52.180;4.462;2022-08-21T11:43:10;12.20;;;2.55;;
48629;SDS011;34426;52.180;4.462;2022-08-21T11:45:44;10.02;;;1.90;;
48629;SDS011;34426;52.180;4.462;2022-08-21T11:48:16;7.73;;;2.30;;
48629;SDS011;34426;52.180;4.462;2022-08-21T11:51:04;15.02;;;3.38;;
48629;SDS011;34426;52.180;4.462;2022-08-21T11:53:39;11.73;;;2.40;;
48629;SDS011;34426;52.180;4.462;2022-08-21T11:56:14;13.15;;;2.50;;
48629;SDS011;34426;52.180;4.462;2022-08-21T11:58:49;13.63;;;2.30;;
48629;SDS011;34426;52.180;4.462;2022-08-21T12:03:51;12.77;;;2.97;;
48629;SDS011;34426;52.180;4.462;2022-08-21T12:06:28;16.52;;;4.35;;
48629;SDS011;34426;52.180;4.462;2022-08-21T12:08:59;10.50;;;2.35;;
48629;SDS011;34426;52.180;4.462;2022-08-21T12:11:29;11.98;;;2.53;;
48629;SDS011;34426;52.180;4.462;2022-08-21T12:13:58;13.77;;;3.25;;
48629;SDS011;34426;52.180;4.462;2022-08-21T12:16:36;9.93;;;2.28;;
48629;SDS011;34426;52.180;4.462;2022-08-21T12:19:06;11.82;;;2.50;;
48629;SDS011;34426;52.180;4.462;2022-08-21T12:21:45;14.38;;;2.78;;
48629;SDS011;34426;52.180;4.462;2022-08-21T12:24:20;11.20;;;1.95;;
48629;SDS011;34426;52.180;4.462;2022-08-21T12:27:12;13.75;;;2.78;;
48629;SDS011;34426;52.180;4.462;2022-08-21T12:29:45;10.20;;;2.13;;
48629;SDS011;34426;52.180;4.462;2022-08-21T12:32:22;10.27;;;2.63;;
48629;SDS011;34426;52.180;4.462;2022-08-21T12:34:52;14.10;;;2.40;;
48629;SDS011;34426;52.180;4.462;2022-08-21T12:39:57;12.98;;;2.45;;
48629;SDS011;34426;52.180;4.462;2022-08-21T12:42:29;15.55;;;3.05;;
48629;SDS011;34426;52.180;4.462;2022-08-21T12:45:03;12.52;;;2.60;;
48629;SDS011;34426;52.180;4.462;2022-08-21T12:47:43;11.27;;;2.22;;
48629;SDS011;34426;52.180;4.462;2022-08-21T12:50:15;11.93;;;2.60;;
48629;SDS011;34426;52.180;4.462;2022-08-21T12:52:48;22.40;;;3.03;;
48629;SDS011;34426;52.180;4.462;2022-08-21T12:55:31;18.30;;;3.00;;
48629;SDS011;34426;52.180;4.462;2022-08-21T12:57:59;9.05;;;2.20;;
48629;SDS011;34426;52.180;4.462;2022-08-21T13:00:27;11.50;;;3.28;;
48629;SDS011;34426;52.180;4.462;2022-08-21T13:02:55;12.25;;;2.50;;
48629;SDS011;34426;52.180;4.462;2022-08-21T13:05:27;14.65;;;2.28;;
48629;SDS011;34426;52.180;4.462;2022-08-21T13:07:56;9.88;;;2.40;;
48629;SDS011;34426;52.180;4.462;2022-08-21T13:10:24;13.10;;;2.88;;
48629;SDS011;34426;52.180;4.462;2022-08-21T13:12:55;9.85;;;2.38;;
48629;SDS011;34426;52.180;4.462;2022-08-21T13:15:25;13.68;;;2.50;;
48629;SDS011;34426;52.180;4.462;2022-08-21T13:17:54;13.27;;;2.70;;
48629;SDS011;34426;52.180;4.462;2022-08-21T13:20:22;15.00;;;2.90;;
48629;SDS011;34426;52.180;4.462;2022-08-21T13:22:53;13.68;;;2.88;;
48629;SDS011;34426;52.180;4.462;2022-08-21T13:25:21;14.32;;;2.60;;
48629;SDS011;34426;52.180;4.462;2022-08-21T13:27:58;11.70;;;2.20;;
48629;SDS011;34426;52.180;4.462;2022-08-21T13:30:29;10.80;;;3.05;;
48629;SDS011;34426;52.180;4.462;2022-08-21T13:32:58;9.73;;;2.22;;
48629;SDS011;34426;52.180;4.462;2022-08-21T13:35:28;11.60;;;2.65;;
48629;SDS011;34426;52.180;4.462;2022-08-21T13:38:00;11.75;;;2.53;;
48629;SDS011;34426;52.180;4.462;2022-08-21T13:40:31;13.18;;;2.65;;
48629;SDS011;34426;52.180;4.462;2022-08-21T13:43:09;14.07;;;2.50;;
48629;SDS011;34426;52.180;4.462;2022-08-21T13:45:42;12.88;;;2.47;;
48629;SDS011;34426;52.180;4.462;2022-08-21T13:48:12;12.13;;;2.85;;
48629;SDS011;34426;52.180;4.462;2022-08-21T13:50:40;13.95;;;2.90;;
48629;SDS011;34426;52.180;4.462;2022-08-21T13:53:22;15.93;;;2.85;;
48629;SDS011;34426;52.180;4.462;2022-08-21T13:55:57;15.23;;;3.25;;
48629;SDS011;34426;52.180;4.462;2022-08-21T13:58:26;7.72;;;2.20;;
48629;SDS011;34426;52.180;4.462;2022-08-21T14:00:55;11.68;;;2.67;;
48629;SDS011;34426;52.180;4.462;2022-08-21T14:03:27;14.55;;;2.75;;
48629;SDS011;34426;52.180;4.462;2022-08-21T14:05:58;12.60;;;2.97;;
48629;SDS011;34426;52.180;4.462;2022-08-21T14:08:27;12.95;;;2.45;;
48629;SDS011;34426;52.180;4.462;2022-08-21T14:10:59;14.05;;;2.92;;
48629;SDS011;34426;52.180;4.462;2022-08-21T14:13:34;16.45;;;3.38;;
48629;SDS011;34426;52.180;4.462;2022-08-21T14:16:11;14.68;;;2.67;;
48629;SDS011;34426;52.180;4.462;2022-08-21T14:18:44;15.38;;;3.22;;
48629;SDS011;34426;52.180;4.462;2022-08-21T14:23:39;15.55;;;2.65;;
48629;SDS011;34426;52.180;4.462;2022-08-21T14:26:08;9.48;;;2.22;;
48629;SDS011;34426;52.180;4.462;2022-08-21T14:28:38;12.50;;;2.78;;
48629;SDS011;34426;52.180;4.462;2022-08-21T14:31:14;10.77;;;2.57;;
48629;SDS011;34426;52.180;4.462;2022-08-21T14:33:43;11.82;;;2.95;;
48629;SDS011;34426;52.180;4.462;2022-08-21T14:36:10;12.95;;;2.63;;
48629;SDS011;34426;52.180;4.462;2022-08-21T14:38:39;12.18;;;2.58;;
48629;SDS011;34426;52.180;4.462;2022-08-21T14:41:11;11.27;;;2.28;;
48629;SDS011;34426;52.180;4.462;2022-08-21T14:43:41;11.27;;;2.55;;
48629;SDS011;34426;52.180;4.462;2022-08-21T14:46:09;9.43;;;2.60;;
48629;SDS011;34426;52.180;4.462;2022-08-21T14:48:37;11.32;;;2.75;;
48629;SDS011;34426;52.180;4.462;2022-08-21T14:51:06;15.20;;;3.20;;
48629;SDS011;34426;52.180;4.462;2022-08-21T14:53:33;11.07;;;2.50;;
48629;SDS011;34426;52.180;4.462;2022-08-21T14:56:01;15.68;;;3.67;;
48629;SDS011;34426;52.180;4.462;2022-08-21T14:58:30;8.70;;;2.33;;
48629;SDS011;34426;52.180;4.462;2022-08-21T15:00:58;15.68;;;2.92;;